Terminal Aerodrome Forecast
Issued by NWS

Home | Current Version | Previous Version | Graphics & Text | Print | Product List | Glossary On
Versions: 1 2 3 4 5 6 7 8 9 10 11 12 13 14 15 16 17 18 19
000
FTUS43 KMPX 030842 AAA
TAFRNH
TAF AMD
KRNH 030842Z 0309/0406 08002KT 5SM BR SCT030
     FM031000 10003KT 3SM BR SCT006 BKN030
      TEMPO 0310/0313 1SM BR VV002
     FM031500 13006KT P6SM SCT008 BKN015
     FM031800 13008KT P6SM SCT025=

USA.gov is the U.S. government's official web portal to all federal, state and local government web resources and services.